Congressman Robert A.roe — WDH3491 — position and weather

sailwx.info

Track history (hours):
 
Tides and Currents Weather Stations Pressure Air Temp Water Temp Dewpoint Dewpoint Depression Visibility Wind Speed Wind Dir Waves Ship Positions

Congressman Robert A.roe

Owner: Port Imperial Ferry Corp., Weehawken, NJ. More information available from US FCC via Universal Licensing System and Coast Guard Vessel Documentation Center.

Last reported at 2018-Jun-16 01:35 UTC. Time now 2018-Jun-18 09:16 UTC.
Position N 40°35' W 074°04'.

Length 27 m; draft 2 m.

Type: Passenger vessel. MMSI: 366902360.

Date/timePositionNaut miles runAvg speedWind from/ knotsBaromVisibWave heightAir tempDewpointWater temp
2018-Jun-16 01:35N 40°35' W 074°04'224.6
2018-Jun-16 01:31N 40°37' W 074°03'612.3
2018-Jun-16 01:01N 40°43' W 074°01'8 5.6
2018-Jun-15 23:35N 40°35' W 074°03'323.5
2018-Jun-15 23:28N 40°38' W 074°03'511.4
2018-Jun-15 23:00N 40°43' W 074°01'1 2.0
2018-Jun-15 22:31N 40°42' W 074°02'6 5.3
2018-Jun-15 21:19N 40°36' W 074°03'721.5
2018-Jun-15 21:00N 40°42' W 074°00'3 5.2
2018-Jun-15 20:31N 40°40' W 074°03'5 3.8
2018-Jun-15 19:16N 40°36' W 074°03'726.2
2018-Jun-15 19:00N 40°42' W 074°00'3 5.5
2018-Jun-15 18:25N 40°45' W 074°01'3 6.3
2018-Jun-15 18:00N 40°43' W 074°01'3 0.7
2018-Jun-15 13:49N 40°46' W 074°01'413.2
2018-Jun-15 13:31N 40°42' W 074°01'6 3.5
2018-Jun-15 11:48N 40°36' W 074°03'723.9
2018-Jun-15 11:31N 40°43' W 074°01'612.4
2018-Jun-15 11:00N 40°37' W 074°03'1 0.1
2018-Jun-15 01:33N 40°36' W 074°03'124.9
2018-Jun-15 01:30N 40°37' W 074°03'612.3
2018-Jun-15 01:01N 40°43' W 074°02'7 4.8
2018-Jun-14 23:33N 40°36' W 074°03'223.2
2018-Jun-14 23:29N 40°38' W 074°03'611.8
2018-Jun-14 23:00N 40°43' W 074°01'1 1.5
2018-Jun-14 22:31N 40°42' W 074°01'7 5.4
2018-Jun-14 21:17N 40°36' W 074°03'622.8
2018-Jun-14 21:00N 40°42' W 074°00'3 5.8
2018-Jun-14 20:31N 40°40' W 074°03'4 2.8
2018-Jun-14 19:15N 40°36' W 074°03'626.3
2018-Jun-14 19:00N 40°42' W 074°00'3 5.8
2018-Jun-14 18:26N 40°46' W 074°01'3 6.1
2018-Jun-14 18:00N 40°43' W 074°01'2 4.8
2018-Jun-14 17:30N 40°45' W 074°01'1 0.3
2018-Jun-14 14:04N 40°46' W 074°01'0 0.6
2018-Jun-14 14:00N 40°46' W 074°01'4 8.2
2018-Jun-14 13:31N 40°42' W 074°00'6 5.1
2018-Jun-14 12:15N 40°36' W 074°03'623.4
2018-Jun-14 12:01N 40°42' W 074°02'2 4.5
2018-Jun-14 11:31N 40°39' W 074°02'4 0.4
2018-Jun-14 01:35N 40°36' W 074°03'223.5
2018-Jun-14 01:30N 40°38' W 074°03'511.1
2018-Jun-14 01:01N 40°43' W 074°01'7 4.8
2018-Jun-13 23:37N 40°36' W 074°03'221.0
2018-Jun-13 23:30N 40°39' W 074°03'5 9.2
2018-Jun-13 23:00N 40°43' W 074°01'2 4.4
2018-Jun-13 22:31N 40°41' W 074°02'5 4.7
2018-Jun-13 21:21N 40°36' W 074°03'720.1
2018-Jun-13 21:01N 40°42' W 074°00'4 7.5
2018-Jun-13 20:31N 40°39' W 074°03'3 2.8
2018-Jun-13 19:17N 40°36' W 074°03'723.9
2018-Jun-13 19:00N 40°42' W 074°00'3 5.4
2018-Jun-13 18:25N 40°45' W 074°01'2 6.2
2018-Jun-13 18:00N 40°43' W 074°01'3 0.8
2018-Jun-13 13:59N 40°46' W 074°01'4 7.9
2018-Jun-13 13:31N 40°42' W 074°01'7 5.0
2018-Jun-13 12:10N 40°36' W 074°03'425.8
2018-Jun-13 12:01N 40°40' W 074°03'2 3.0
2018-Jun-13 11:31N 40°41' W 074°01'6 0.6
2018-Jun-13 01:37N 40°35' W 074°04'324.8
2018-Jun-13 01:30N 40°38' W 074°03'611.2
2018-Jun-13 01:00N 40°43' W 074°01'9 6.8
2018-Jun-12 23:43N 40°34' W 074°04'421.2
2018-Jun-12 23:30N 40°39' W 074°03'4 8.8
2018-Jun-12 23:01N 40°43' W 074°01'2 3.0
2018-Jun-12 22:31N 40°42' W 074°02'5 4.3
2018-Jun-12 21:17N 40°36' W 074°03'519.7
2018-Jun-12 21:00N 40°42' W 074°01'1 3.0
2018-Jun-12 20:31N 40°41' W 074°02'5 4.2
2018-Jun-12 19:19N 40°36' W 074°03'723.2
2018-Jun-12 19:00N 40°42' W 074°00'3 5.9
2018-Jun-12 18:26N 40°46' W 074°00'3 6.4
2018-Jun-12 18:01N 40°43' W 074°01'3 0.8
2018-Jun-12 13:54N 40°46' W 074°01'4 9.8
2018-Jun-12 13:31N 40°42' W 074°01'7 5.0
2018-Jun-12 12:10N 40°36' W 074°03'425.8
2018-Jun-12 12:01N 40°40' W 074°03'1 2.6
2018-Jun-12 11:31N 40°40' W 074°01'1 0.1
2018-Jun-12 01:23N 40°40' W 074°03'4 9.6
2018-Jun-12 01:00N 40°43' W 074°01'5 3.2
2018-Jun-11 23:30N 40°38' W 074°03'5 8.7
2018-Jun-11 22:57N 40°43' W 074°02'1 3.2
2018-Jun-11 22:30N 40°42' W 074°02'3 2.3
2018-Jun-11 21:11N 40°39' W 074°02'318.3
2018-Jun-11 21:00N 40°42' W 074°00'2 3.8
2018-Jun-11 20:30N 40°41' W 074°03'2 1.5
2018-Jun-11 19:10N 40°39' W 074°02'410.9
2018-Jun-11 18:50N 40°42' W 074°01'4 8.9
2018-Jun-11 18:26N 40°46' W 074°01'3 6.0
2018-Jun-11 17:59N 40°43' W 074°01'1 0.3
2018-Jun-11 13:47N 40°44' W 074°01'2 7.7
2018-Jun-11 13:30N 40°42' W 074°00'3 2.1
2018-Jun-11 12:03N 40°40' W 074°03'127.4
2018-Jun-11 12:00N 40°41' W 074°02'2 3.4
2018-Jun-11 11:30N 40°40' W 074°01'  
2018-Jun-09 01:33N 40°36' W 074°03'328.2
2018-Jun-09 01:28N 40°38' W 074°02'4 9.0
2018-Jun-09 01:01N 40°42' W 074°02'6 4.1
2018-Jun-08 23:33N 40°36' W 074°03'227.5
2018-Jun-08 23:29N 40°38' W 074°02'510.2
2018-Jun-08 23:00N 40°43' W 074°01'1 2.2
2018-Jun-08 22:31N 40°42' W 074°02'6 5.1
2018-Jun-08 21:20N 40°36' W 074°03'619.8
2018-Jun-08 21:00N 40°42' W 074°00'2 4.6
2018-Jun-08 20:31N 40°41' W 074°02'6 4.9
2018-Jun-08 19:20N 40°35' W 074°03'723.1
2018-Jun-08 19:00N 40°42' W 074°00'4 5.5
2018-Jun-08 18:22N 40°46' W 074°00'3 7.5
2018-Jun-08 18:00N 40°43' W 074°01'3 5.7
2018-Jun-08 17:30N 40°46' W 074°01'0 0.1
2018-Jun-08 14:04N 40°46' W 074°01'0 2.7
2018-Jun-08 13:54N 40°46' W 074°01'4 9.5
2018-Jun-08 13:31N 40°42' W 074°00'5 3.8
2018-Jun-08 12:13N 40°38' W 074°03'525.7
2018-Jun-08 12:00N 40°43' W 074°02'712.3
2018-Jun-08 11:29N 40°36' W 074°03'0 0.0
2018-Jun-08 01:31N 40°36' W 074°03'612.8
2018-Jun-08 01:01N 40°43' W 074°02'8 5.3
2018-Jun-07 23:35N 40°35' W 074°03'324.3
2018-Jun-07 23:29N 40°38' W 074°03'510.9
2018-Jun-07 23:00N 40°43' W 074°01'3 5.6
2018-Jun-07 22:31N 40°40' W 074°02'4 3.2
2018-Jun-07 21:17N 40°36' W 074°03'621.9
2018-Jun-07 21:00N 40°42' W 074°00'2 3.5
2018-Jun-07 20:31N 40°41' W 074°02'5 3.6
2018-Jun-07 19:16N 40°37' W 074°03'622.4
2018-Jun-07 19:00N 40°42' W 074°00'3 4.9
2018-Jun-07 18:19N 40°46' W 074°01'3 8.6
2018-Jun-07 18:00N 40°43' W 074°01'2 4.6
2018-Jun-07 17:30N 40°45' W 074°01'1 0.2
2018-Jun-07 13:55N 40°46' W 074°01'4 9.3
2018-Jun-07 13:30N 40°42' W 074°00'6 4.6
2018-Jun-07 12:16N 40°37' W 074°03'624.9
2018-Jun-07 12:00N 40°43' W 074°02'712.3
2018-Jun-07 11:28N 40°36' W 074°03'1 0.1
2018-Jun-07 01:33N 40°35' W 074°03'126.3
2018-Jun-07 01:30N 40°36' W 074°03'713.4
2018-Jun-07 01:01N 40°43' W 074°02'7 4.9
2018-Jun-06 23:35N 40°36' W 074°03'225.4
2018-Jun-06 23:30N 40°38' W 074°03'510.0
2018-Jun-06 23:00N 40°43' W 074°01'2 3.5
2018-Jun-06 22:30N 40°41' W 074°02'6 4.5
2018-Jun-06 21:15N 40°36' W 074°03'623.3
2018-Jun-06 21:01N 40°41' W 074°01'1 2.9
2018-Jun-06 20:31N 40°40' W 074°02'4 3.4
2018-Jun-06 19:17N 40°36' W 074°03'622.9
2018-Jun-06 19:00N 40°42' W 074°00'3 3.6
2018-Jun-06 18:17N 40°45' W 074°01'2 6.4
2018-Jun-06 18:00N 40°43' W 074°01'3 0.7
2018-Jun-06 13:57N 40°46' W 074°00'3 7.8
2018-Jun-06 13:31N 40°42' W 074°00'6 4.6
2018-Jun-06 12:11N 40°36' W 074°03'529.7
2018-Jun-06 12:01N 40°42' W 074°02'3 5.4
2018-Jun-06 11:31N 40°39' W 074°02'  
Track history (hours):
 
Tides and Currents Weather Stations Pressure Air Temp Water Temp Dewpoint Dewpoint Depression Visibility Wind Speed Wind Dir Waves Ship Positions

Congressman Robert A.roe

Owner: Port Imperial Ferry Corp., Weehawken, NJ. More information available from US FCC via Universal Licensing System and Coast Guard Vessel Documentation Center.

Last reported at 2018-Jun-16 01:35 UTC. Time now 2018-Jun-18 09:16 UTC.
Position N 40°35' W 074°04'.

Length 27 m; draft 2 m.

Type: Passenger vessel. MMSI: 366902360.

Date/timePositionNaut miles runAvg speedWind from/ knotsBaromVisibWave heightAir tempDewpointWater temp
2018-Jun-16 01:35N 40°35' W 074°04'224.6
2018-Jun-16 01:31N 40°37' W 074°03'612.3
2018-Jun-16 01:01N 40°43' W 074°01'8 5.6
2018-Jun-15 23:35N 40°35' W 074°03'323.5
2018-Jun-15 23:28N 40°38' W 074°03'511.4
2018-Jun-15 23:00N 40°43' W 074°01'1 2.0
2018-Jun-15 22:31N 40°42' W 074°02'6 5.3
2018-Jun-15 21:19N 40°36' W 074°03'721.5
2018-Jun-15 21:00N 40°42' W 074°00'3 5.2
2018-Jun-15 20:31N 40°40' W 074°03'5 3.8
2018-Jun-15 19:16N 40°36' W 074°03'726.2
2018-Jun-15 19:00N 40°42' W 074°00'3 5.5
2018-Jun-15 18:25N 40°45' W 074°01'3 6.3
2018-Jun-15 18:00N 40°43' W 074°01'3 0.7
2018-Jun-15 13:49N 40°46' W 074°01'413.2
2018-Jun-15 13:31N 40°42' W 074°01'6 3.5
2018-Jun-15 11:48N 40°36' W 074°03'723.9
2018-Jun-15 11:31N 40°43' W 074°01'612.4
2018-Jun-15 11:00N 40°37' W 074°03'1 0.1
2018-Jun-15 01:33N 40°36' W 074°03'124.9
2018-Jun-15 01:30N 40°37' W 074°03'612.3
2018-Jun-15 01:01N 40°43' W 074°02'7 4.8
2018-Jun-14 23:33N 40°36' W 074°03'223.2
2018-Jun-14 23:29N 40°38' W 074°03'611.8
2018-Jun-14 23:00N 40°43' W 074°01'1 1.5
2018-Jun-14 22:31N 40°42' W 074°01'7 5.4
2018-Jun-14 21:17N 40°36' W 074°03'622.8
2018-Jun-14 21:00N 40°42' W 074°00'3 5.8
2018-Jun-14 20:31N 40°40' W 074°03'4 2.8
2018-Jun-14 19:15N 40°36' W 074°03'626.3
2018-Jun-14 19:00N 40°42' W 074°00'3 5.8
2018-Jun-14 18:26N 40°46' W 074°01'3 6.1
2018-Jun-14 18:00N 40°43' W 074°01'2 4.8
2018-Jun-14 17:30N 40°45' W 074°01'1 0.3
2018-Jun-14 14:04N 40°46' W 074°01'0 0.6
2018-Jun-14 14:00N 40°46' W 074°01'4 8.2
2018-Jun-14 13:31N 40°42' W 074°00'6 5.1
2018-Jun-14 12:15N 40°36' W 074°03'623.4
2018-Jun-14 12:01N 40°42' W 074°02'2 4.5
2018-Jun-14 11:31N 40°39' W 074°02'4 0.4
2018-Jun-14 01:35N 40°36' W 074°03'223.5
2018-Jun-14 01:30N 40°38' W 074°03'511.1
2018-Jun-14 01:01N 40°43' W 074°01'7 4.8
2018-Jun-13 23:37N 40°36' W 074°03'221.0
2018-Jun-13 23:30N 40°39' W 074°03'5 9.2
2018-Jun-13 23:00N 40°43' W 074°01'2 4.4
2018-Jun-13 22:31N 40°41' W 074°02'5 4.7
2018-Jun-13 21:21N 40°36' W 074°03'720.1
2018-Jun-13 21:01N 40°42' W 074°00'4 7.5
2018-Jun-13 20:31N 40°39' W 074°03'3 2.8
2018-Jun-13 19:17N 40°36' W 074°03'723.9
2018-Jun-13 19:00N 40°42' W 074°00'3 5.4
2018-Jun-13 18:25N 40°45' W 074°01'2 6.2
2018-Jun-13 18:00N 40°43' W 074°01'3 0.8
2018-Jun-13 13:59N 40°46' W 074°01'4 7.9
2018-Jun-13 13:31N 40°42' W 074°01'7 5.0
2018-Jun-13 12:10N 40°36' W 074°03'425.8
2018-Jun-13 12:01N 40°40' W 074°03'2 3.0
2018-Jun-13 11:31N 40°41' W 074°01'6 0.6
2018-Jun-13 01:37N 40°35' W 074°04'324.8
2018-Jun-13 01:30N 40°38' W 074°03'611.2
2018-Jun-13 01:00N 40°43' W 074°01'9 6.8
2018-Jun-12 23:43N 40°34' W 074°04'421.2
2018-Jun-12 23:30N 40°39' W 074°03'4 8.8
2018-Jun-12 23:01N 40°43' W 074°01'2 3.0
2018-Jun-12 22:31N 40°42' W 074°02'5 4.3
2018-Jun-12 21:17N 40°36' W 074°03'519.7
2018-Jun-12 21:00N 40°42' W 074°01'1 3.0
2018-Jun-12 20:31N 40°41' W 074°02'5 4.2
2018-Jun-12 19:19N 40°36' W 074°03'723.2
2018-Jun-12 19:00N 40°42' W 074°00'3 5.9
2018-Jun-12 18:26N 40°46' W 074°00'3 6.4
2018-Jun-12 18:01N 40°43' W 074°01'3 0.8
2018-Jun-12 13:54N 40°46' W 074°01'4 9.8
2018-Jun-12 13:31N 40°42' W 074°01'7 5.0
2018-Jun-12 12:10N 40°36' W 074°03'425.8
2018-Jun-12 12:01N 40°40' W 074°03'1 2.6
2018-Jun-12 11:31N 40°40' W 074°01'1 0.1
2018-Jun-12 01:23N 40°40' W 074°03'4 9.6
2018-Jun-12 01:00N 40°43' W 074°01'5 3.2
2018-Jun-11 23:30N 40°38' W 074°03'5 8.7
2018-Jun-11 22:57N 40°43' W 074°02'1 3.2
2018-Jun-11 22:30N 40°42' W 074°02'3 2.3
2018-Jun-11 21:11N 40°39' W 074°02'318.3
2018-Jun-11 21:00N 40°42' W 074°00'2 3.8
2018-Jun-11 20:30N 40°41' W 074°03'2 1.5
2018-Jun-11 19:10N 40°39' W 074°02'410.9
2018-Jun-11 18:50N 40°42' W 074°01'4 8.9
2018-Jun-11 18:26N 40°46' W 074°01'3 6.0
2018-Jun-11 17:59N 40°43' W 074°01'1 0.3
2018-Jun-11 13:47N 40°44' W 074°01'2 7.7
2018-Jun-11 13:30N 40°42' W 074°00'3 2.1
2018-Jun-11 12:03N 40°40' W 074°03'127.4
2018-Jun-11 12:00N 40°41' W 074°02'2 3.4
2018-Jun-11 11:30N 40°40' W 074°01'  
2018-Jun-09 01:33N 40°36' W 074°03'328.2
2018-Jun-09 01:28N 40°38' W 074°02'4 9.0
2018-Jun-09 01:01N 40°42' W 074°02'6 4.1
2018-Jun-08 23:33N 40°36' W 074°03'227.5
2018-Jun-08 23:29N 40°38' W 074°02'510.2
2018-Jun-08 23:00N 40°43' W 074°01'1 2.2
2018-Jun-08 22:31N 40°42' W 074°02'6 5.1
2018-Jun-08 21:20N 40°36' W 074°03'619.8
2018-Jun-08 21:00N 40°42' W 074°00'2 4.6
2018-Jun-08 20:31N 40°41' W 074°02'6 4.9
2018-Jun-08 19:20N 40°35' W 074°03'723.1
2018-Jun-08 19:00N 40°42' W 074°00'4 5.5
2018-Jun-08 18:22N 40°46' W 074°00'3 7.5
2018-Jun-08 18:00N 40°43' W 074°01'3 5.7
2018-Jun-08 17:30N 40°46' W 074°01'0 0.1
2018-Jun-08 14:04N 40°46' W 074°01'0 2.7
2018-Jun-08 13:54N 40°46' W 074°01'4 9.5
2018-Jun-08 13:31N 40°42' W 074°00'5 3.8
2018-Jun-08 12:13N 40°38' W 074°03'525.7
2018-Jun-08 12:00N 40°43' W 074°02'712.3
2018-Jun-08 11:29N 40°36' W 074°03'0 0.0
2018-Jun-08 01:31N 40°36' W 074°03'612.8
2018-Jun-08 01:01N 40°43' W 074°02'8 5.3
2018-Jun-07 23:35N 40°35' W 074°03'324.3
2018-Jun-07 23:29N 40°38' W 074°03'510.9
2018-Jun-07 23:00N 40°43' W 074°01'3 5.6
2018-Jun-07 22:31N 40°40' W 074°02'4 3.2
2018-Jun-07 21:17N 40°36' W 074°03'621.9
2018-Jun-07 21:00N 40°42' W 074°00'2 3.5
2018-Jun-07 20:31N 40°41' W 074°02'5 3.6
2018-Jun-07 19:16N 40°37' W 074°03'622.4
2018-Jun-07 19:00N 40°42' W 074°00'3 4.9
2018-Jun-07 18:19N 40°46' W 074°01'3 8.6
2018-Jun-07 18:00N 40°43' W 074°01'2 4.6
2018-Jun-07 17:30N 40°45' W 074°01'1 0.2
2018-Jun-07 13:55N 40°46' W 074°01'4 9.3
2018-Jun-07 13:30N 40°42' W 074°00'6 4.6
2018-Jun-07 12:16N 40°37' W 074°03'624.9
2018-Jun-07 12:00N 40°43' W 074°02'712.3
2018-Jun-07 11:28N 40°36' W 074°03'1 0.1
2018-Jun-07 01:33N 40°35' W 074°03'126.3
2018-Jun-07 01:30N 40°36' W 074°03'713.4
2018-Jun-07 01:01N 40°43' W 074°02'7 4.9
2018-Jun-06 23:35N 40°36' W 074°03'225.4
2018-Jun-06 23:30N 40°38' W 074°03'510.0
2018-Jun-06 23:00N 40°43' W 074°01'2 3.5
2018-Jun-06 22:30N 40°41' W 074°02'6 4.5
2018-Jun-06 21:15N 40°36' W 074°03'623.3
2018-Jun-06 21:01N 40°41' W 074°01'1 2.9
2018-Jun-06 20:31N 40°40' W 074°02'4 3.4
2018-Jun-06 19:17N 40°36' W 074°03'622.9
2018-Jun-06 19:00N 40°42' W 074°00'3 3.6
2018-Jun-06 18:17N 40°45' W 074°01'2 6.4
2018-Jun-06 18:00N 40°43' W 074°01'3 0.7
2018-Jun-06 13:57N 40°46' W 074°00'3 7.8
2018-Jun-06 13:31N 40°42' W 074°00'6 4.6
2018-Jun-06 12:11N 40°36' W 074°03'529.7
2018-Jun-06 12:01N 40°42' W 074°02'3 5.4
2018-Jun-06 11:31N 40°39' W 074°02'  

Dump ship's entire track history